Time;durP1;ratioP1;P1;durP2;ratioP2;P2;SDS_P1;SDS_P2;PMS_P1;PMS_P2;Temp;Humidity;BMP_temperature;BMP_pressure;BME280_temperature;BME280_humidity;BME280_pressure;Samples;Min_cycle;Max_cycle;Signal;HPM_P1;HPM_P2
2023/07/01 00:02:07;;;;;;;5.30;1.48;;;;;;;21.08;43.75;100733.47;5039754;28;20517;-65
2023/07/01 00:04:37;;;;;;;6.25;1.73;;;;;;;21.07;43.76;100728.31;5044449;28;20045;-65
2023/07/01 00:07:05;;;;;;;2.38;1.73;;;;;;;21.06;43.76;100721.22;5044608;28;20054;-65
2023/07/01 00:09:33;;;;;;;4.97;1.95;;;;;;;21.05;43.89;100723.13;5043708;28;20049;-65
2023/07/01 00:12:01;;;;;;;3.60;1.60;;;;;;;21.00;43.69;100711.47;5045354;28;20107;-65
2023/07/01 00:14:29;;;;;;;3.58;1.65;;;;;;;21.03;43.74;100705.41;5044346;28;20046;-65
2023/07/01 00:16:56;;;;;;;3.95;1.65;;;;;;;21.02;43.90;100706.53;5045334;28;20056;-65
2023/07/01 00:19:24;;;;;;;5.55;1.95;;;;;;;21.02;43.90;100706.53;5043328;28;20053;-65
2023/07/01 00:21:53;;;;;;;3.92;2.25;;;;;;;21.01;43.70;100710.34;5043652;28;20060;-64
2023/07/01 00:24:21;;;;;;;3.58;1.60;;;;;;;20.99;43.92;100699.72;5042837;28;20046;-64
2023/07/01 00:26:49;;;;;;;4.40;1.92;;;;;;;20.99;43.91;100688.78;5044367;28;20392;-64
2023/07/01 00:29:17;;;;;;;4.40;1.65;;;;;;;20.98;43.77;100686.34;5042948;28;20041;-65
2023/07/01 00:31:44;;;;;;;3.60;2.03;;;;;;;20.97;43.88;100682.00;5043847;28;20053;-65
2023/07/01 00:34:12;;;;;;;3.40;1.63;;;;;;;20.95;43.96;100676.84;5044122;28;20052;-64
2023/07/01 00:36:40;;;;;;;7.13;2.33;;;;;;;20.95;43.84;100679.56;5044424;28;20061;-64
2023/07/01 00:39:09;;;;;;;5.70;1.95;;;;;;;20.95;43.94;100673.28;5042503;28;20053;-65
2023/07/01 00:41:37;;;;;;;4.28;1.80;;;;;;;20.94;43.99;100664.28;5042034;28;20123;-64
2023/07/01 00:44:05;;;;;;;3.05;1.52;;;;;;;20.94;43.91;100666.19;5038884;28;20045;-65
2023/07/01 00:46:33;;;;;;;4.97;1.58;;;;;;;20.93;44.01;100661.84;5043048;28;20067;-65
2023/07/01 00:49:02;;;;;;;3.95;1.88;;;;;;;20.93;44.02;100657.19;5042908;28;20107;-64
2023/07/01 00:51:29;;;;;;;5.00;1.90;;;;;;;20.92;44.14;100652.84;5043612;28;20045;-64
2023/07/01 00:53:57;;;;;;;5.65;1.75;;;;;;;20.92;44.08;100652.03;5041542;28;20038;-65
2023/07/01 00:56:27;;;;;;;2.80;1.50;;;;;;;20.89;44.02;100641.69;5043982;28;20049;-65
2023/07/01 00:58:55;;;;;;;2.65;1.70;;;;;;;20.91;44.05;100644.94;5040565;28;20080;-65
2023/07/01 01:01:34;;;;;;;3.63;1.92;;;;;;;20.89;44.15;100647.97;5043517;28;20139;-65
2023/07/01 01:04:14;;;;;;;7.68;1.95;;;;;;;20.89;44.09;100637.03;5040782;28;20045;-64
2023/07/01 01:06:46;;;;;;;3.80;1.83;;;;;;;20.89;44.20;100639.75;5042809;28;20046;-65
2023/07/01 01:09:23;;;;;;;2.90;1.60;;;;;;;20.88;44.39;100624.47;5043200;28;20056;-65
2023/07/01 01:11:54;;;;;;;3.33;1.65;;;;;;;20.88;44.32;100626.41;5043771;28;20107;-65
2023/07/01 01:14:23;;;;;;;4.53;1.52;;;;;;;20.87;44.22;100628.31;5038498;28;20045;-65
2023/07/01 01:16:52;;;;;;;4.03;1.83;;;;;;;20.87;44.58;100635.72;5040768;28;20533;-66
2023/07/01 01:19:29;;;;;;;4.35;2.10;;;;;;;20.85;44.53;100618.78;5043398;28;20053;-65
2023/07/01 01:22:21;;;;;;;6.05;2.00;;;;;;;20.84;44.64;100615.25;5033476;28;20049;-64
2023/07/01 01:24:52;;;;;;;3.58;1.88;;;;;;;20.84;44.63;100620.72;5035043;28;20099;-65
2023/07/01 01:27:24;;;;;;;3.45;1.63;;;;;;;20.83;44.75;100613.63;5043090;28;20049;-65
2023/07/01 01:29:53;;;;;;;3.78;1.83;;;;;;;20.82;44.63;100614.75;5043285;28;20414;-65
2023/07/01 01:32:21;;;;;;;3.75;1.73;;;;;;;20.80;44.76;100604.09;5032540;28;20374;-64
2023/07/01 01:34:48;;;;;;;3.53;1.73;;;;;;;20.79;44.90;100601.69;5041181;28;20046;-65
2023/07/01 01:37:25;;;;;;;6.60;2.10;;;;;;;20.79;44.97;100601.69;5044164;28;20145;-64
2023/07/01 01:40:09;;;;;;;6.82;1.92;;;;;;;20.78;44.97;100597.34;5042318;28;20057;-65
2023/07/01 01:42:40;;;;;;;5.22;1.85;;;;;;;20.77;45.28;100593.81;5046342;28;20056;-65
2023/07/01 01:45:10;;;;;;;5.40;1.65;;;;;;;20.76;45.25;100600.38;5037845;28;20387;-64
2023/07/01 01:47:39;;;;;;;7.05;1.80;;;;;;;20.75;45.61;100596.03;5046618;28;20045;-64
2023/07/01 01:50:10;;;;;;;4.35;1.95;;;;;;;20.75;45.43;100593.28;5037144;28;20049;-65
2023/07/01 01:52:39;;;;;;;5.70;1.88;;;;;;;20.74;45.83;100590.84;5046137;28;20053;-65
2023/07/01 01:55:10;;;;;;;5.65;2.13;;;;;;;20.70;45.95;100582.44;5044299;28;20049;-64
2023/07/01 01:57:39;;;;;;;3.28;1.95;;;;;;;20.72;46.66;100585.69;5047858;28;20065;-64
2023/07/01 02:00:09;;;;;;;8.50;2.28;;;;;;;20.70;46.41;100582.44;5038530;28;20049;-65
2023/07/01 02:02:37;;;;;;;2.97;1.92;;;;;;;20.70;46.54;100581.63;5047144;28;20053;-64
2023/07/01 02:05:05;;;;;;;4.32;1.70;;;;;;;20.68;46.61;100578.38;5044970;28;20068;-64
2023/07/01 02:07:33;;;;;;;3.00;1.85;;;;;;;20.66;46.67;100580.59;5047762;28;20152;-64
2023/07/01 02:10:01;;;;;;;3.30;1.80;;;;;;;20.67;46.91;100571.28;5046542;28;20046;-64
2023/07/01 02:12:30;;;;;;;5.72;2.25;;;;;;;20.66;46.81;100566.94;5046376;28;20123;-64
2023/07/01 02:14:58;;;;;;;4.40;1.85;;;;;;;20.65;47.46;100568.84;5043139;28;20052;-64
2023/07/01 02:17:27;;;;;;;4.57;2.00;;;;;;;20.64;47.57;100563.69;5045721;28;20053;-64
2023/07/01 02:19:55;;;;;;;5.22;1.90;;;;;;;20.63;47.41;100567.53;5042943;28;20045;-65
2023/07/01 02:22:23;;;;;;;5.30;1.95;;;;;;;20.62;47.42;100564.00;5046792;28;20041;-65
2023/07/01 02:24:50;;;;;;;5.22;2.10;;;;;;;20.61;47.74;100569.75;5046296;28;20092;-65
2023/07/01 02:27:19;;;;;;;7.15;2.00;;;;;;;20.60;48.10;100570.84;5042809;28;20053;-65
2023/07/01 02:29:47;;;;;;;4.75;1.77;;;;;;;20.57;48.17;100569.53;5045833;28;20083;-65
2023/07/01 02:32:15;;;;;;;3.92;2.08;;;;;;;20.56;48.56;100570.63;5046856;28;20076;-65
2023/07/01 02:34:44;;;;;;;4.18;2.05;;;;;;;20.54;49.15;100564.66;5043569;28;20127;-65
2023/07/01 02:37:12;;;;;;;7.75;2.08;;;;;;;20.53;49.47;100564.94;5042512;28;20046;-65
2023/07/01 02:39:40;;;;;;;6.25;1.65;;;;;;;20.52;49.17;100557.84;5040447;28;20045;-65
2023/07/01 02:42:08;;;;;;;3.38;1.83;;;;;;;20.49;49.93;100542.88;5035364;28;20075;-65
2023/07/01 02:44:35;;;;;;;4.30;1.92;;;;;;;20.50;50.07;100551.88;5045073;28;20045;-65
2023/07/01 02:47:03;;;;;;;4.35;1.50;;;;;;;20.49;49.44;100548.34;5043961;28;20060;-65
2023/07/01 02:49:31;;;;;;;3.92;1.70;;;;;;;20.50;49.94;100543.69;5046252;28;20049;-65
2023/07/01 02:52:00;;;;;;;4.03;1.83;;;;;;;20.49;49.87;100547.53;5044295;28;20057;-65
2023/07/01 02:54:28;;;;;;;4.68;1.70;;;;;;;20.48;50.33;100537.72;5042764;28;20046;-63
2023/07/01 02:56:56;;;;;;;2.38;1.50;;;;;;;20.48;50.39;100541.25;5045990;28;20045;-65
2023/07/01 02:59:23;;;;;;;4.63;2.22;;;;;;;20.51;50.14;100542.59;5043521;28;20076;-65
2023/07/01 03:01:51;;;;;;;4.85;1.85;;;;;;;20.48;49.89;100538.53;5046031;28;20399;-65
2023/07/01 03:04:20;;;;;;;2.90;1.63;;;;;;;20.49;50.55;100542.06;5045171;28;20045;-66
2023/07/01 03:06:48;;;;;;;3.72;1.83;;;;;;;20.48;50.43;100548.63;5045118;28;20117;-65
2023/07/01 03:09:17;;;;;;;3.22;1.45;;;;;;;20.45;50.27;100542.66;5046133;28;20053;-66
2023/07/01 03:11:45;;;;;;;4.47;1.77;;;;;;;20.45;50.53;100536.38;5045151;28;20053;-65
2023/07/01 03:14:13;;;;;;;6.07;1.88;;;;;;;20.46;50.17;100529.81;5045213;28;20110;-64
2023/07/01 03:16:41;;;;;;;3.42;1.85;;;;;;;20.45;50.22;100541.84;5045374;28;20104;-64
2023/07/01 03:19:10;;;;;;;2.95;1.55;;;;;;;20.44;50.57;100532.84;5045708;28;20064;-64
2023/07/01 03:21:38;;;;;;;3.78;1.45;;;;;;;20.43;50.33;100531.22;5045346;28;20053;-64
2023/07/01 03:24:06;;;;;;;4.05;1.92;;;;;;;20.42;50.41;100526.06;5033863;28;20104;-64
2023/07/01 03:26:36;;;;;;;3.17;1.70;;;;;;;20.42;50.58;100515.94;5042018;28;20048;-65
2023/07/01 03:29:04;;;;;;;3.53;1.73;;;;;;;20.40;50.58;100520.91;5045941;28;20049;-64
2023/07/01 03:31:32;;;;;;;3.65;1.73;;;;;;;20.49;50.55;100512.03;5043570;28;20046;-65
2023/07/01 03:34:01;;;;;;;4.60;1.70;;;;;;;20.43;50.89;100508.56;5046164;28;20053;-64
2023/07/01 03:36:28;;;;;;;3.83;1.80;;;;;;;20.40;51.14;100504.50;5041796;28;20046;-65
2023/07/01 03:38:58;;;;;;;5.35;2.13;;;;;;;20.37;51.31;100507.81;5046319;28;20057;-65
2023/07/01 03:41:25;;;;;;;3.50;1.75;;;;;;;20.36;51.40;100503.44;5042984;28;20115;-65
2023/07/01 03:43:55;;;;;;;3.35;1.70;;;;;;;20.35;51.51;100495.56;5040553;28;20120;-65
2023/07/01 03:46:22;;;;;;;4.72;1.85;;;;;;;20.34;51.34;100500.22;5042810;28;20049;-65
2023/07/01 03:48:50;;;;;;;4.32;1.80;;;;;;;20.33;52.12;100492.31;5045579;28;20049;-64
2023/07/01 03:51:18;;;;;;;4.57;1.88;;;;;;;20.32;51.58;100498.88;5042612;28;20049;-64
2023/07/01 03:53:46;;;;;;;3.08;1.52;;;;;;;20.31;51.54;100495.34;5043423;28;20049;-64
2023/07/01 03:56:14;;;;;;;3.28;2.05;;;;;;;20.31;51.96;100498.06;5043817;28;20144;-65
2023/07/01 03:58:41;;;;;;;3.22;1.75;;;;;;;20.31;52.02;100502.72;5044634;28;20053;-65
2023/07/01 04:01:10;;;;;;;2.28;1.40;;;;;;;20.29;52.31;100494.81;5041323;28;20050;-64
2023/07/01 04:03:38;;;;;;;2.90;1.48;;;;;;;20.29;52.12;100502.19;5042802;28;20057;-65
2023/07/01 04:06:07;;;;;;;3.88;2.30;;;;;;;20.29;52.00;100485.81;5041753;28;20046;-65
2023/07/01 04:08:34;;;;;;;4.72;1.88;;;;;;;20.27;52.29;100482.56;5039181;28;20076;-65
2023/07/01 04:11:02;;;;;;;3.10;1.80;;;;;;;20.26;52.83;100481.75;5043442;28;20045;-65
2023/07/01 04:13:30;;;;;;;4.70;1.90;;;;;;;20.25;52.51;100482.06;5044129;28;20063;-65
2023/07/01 04:15:58;;;;;;;5.88;1.73;;;;;;;20.24;52.84;100483.97;5035410;28;20042;-65
2023/07/01 04:18:27;;;;;;;2.92;1.88;;;;;;;20.23;52.53;100467.91;5032704;28;20065;-64
2023/07/01 04:20:54;;;;;;;3.28;2.05;;;;;;;20.22;52.54;100471.72;5043769;28;20065;-64
2023/07/01 04:23:22;;;;;;;2.53;1.60;;;;;;;20.23;52.84;100470.63;5043416;28;20045;-64
2023/07/01 04:25:50;;;;;;;2.40;1.50;;;;;;;20.22;52.70;100471.72;5043771;28;20045;-65
2023/07/01 04:28:18;;;;;;;3.67;1.77;;;;;;;20.21;52.66;100459.19;5043405;28;20304;-65
2023/07/01 04:30:45;;;;;;;3.42;2.10;;;;;;;20.25;52.72;100457.50;5044196;28;20057;-65
2023/07/01 04:33:14;;;;;;;2.47;1.60;;;;;;;20.24;52.99;100461.34;5037841;28;20073;-65
2023/07/01 04:35:43;;;;;;;2.20;1.67;;;;;;;20.23;52.83;100459.72;5044443;28;20068;-65
2023/07/01 04:38:10;;;;;;;4.35;1.80;;;;;;;20.21;53.66;100460.00;5043905;28;20045;-65
2023/07/01 04:40:38;;;;;;;3.40;1.73;;;;;;;20.22;53.31;100453.44;5043185;28;20049;-65
2023/07/01 04:43:07;;;;;;;2.92;1.70;;;;;;;20.21;53.20;100457.28;5044321;28;20495;-65
2023/07/01 04:45:35;;;;;;;4.03;1.70;;;;;;;20.21;53.54;100451.00;5042223;28;20049;-65
2023/07/01 04:48:02;;;;;;;2.25;1.42;;;;;;;20.19;53.57;100445.03;5040445;28;20525;-65
2023/07/01 04:50:30;;;;;;;4.60;1.80;;;;;;;20.19;53.35;100445.03;5043675;28;20079;-65
2023/07/01 04:53:00;;;;;;;3.17;1.73;;;;;;;20.18;53.51;100443.41;5042194;28;20056;-65
2023/07/01 04:55:30;;;;;;;3.35;1.70;;;;;;;20.17;53.40;100444.53;4752850;28;10000559;-67
2023/07/01 04:57:57;;;;;;;2.58;1.55;;;;;;;20.17;53.52;100441.78;5042104;28;20266;-66
2023/07/01 05:00:25;;;;;;;2.22;1.20;;;;;;;20.18;53.27;100436.03;5040147;28;20119;-67
2023/07/01 05:02:53;;;;;;;2.60;1.55;;;;;;;20.27;53.04;100437.00;5041542;28;20088;-67
2023/07/01 05:05:21;;;;;;;3.00;1.70;;;;;;;20.25;53.26;100433.75;5042230;28;20049;-67
2023/07/01 05:07:49;;;;;;;2.47;1.38;;;;;;;20.20;53.79;100431.09;5038595;28;20056;-67
2023/07/01 05:10:18;;;;;;;2.75;1.52;;;;;;;20.17;53.52;100423.50;5036975;28;20053;-67
2023/07/01 05:12:46;;;;;;;2.40;1.55;;;;;;;20.31;53.62;100421.66;5036224;28;20056;-67
2023/07/01 05:15:14;;;;;;;3.00;1.58;;;;;;;20.33;53.34;100419.44;5038727;28;20049;-67
2023/07/01 05:17:42;;;;;;;2.15;1.48;;;;;;;20.31;53.75;100421.66;5032635;28;20072;-67
2023/07/01 05:20:11;;;;;;;2.90;1.25;;;;;;;20.50;53.28;100421.66;5041272;28;20049;-67
2023/07/01 05:22:39;;;;;;;2.47;1.38;;;;;;;20.29;53.98;100417.59;5039855;28;20749;-66
2023/07/01 05:25:08;;;;;;;2.40;1.50;;;;;;;20.26;53.82;100423.66;5036029;28;20049;-67
2023/07/01 05:27:37;;;;;;;2.00;1.10;;;;;;;20.49;53.38;100419.22;5037912;28;20093;-67
2023/07/01 05:30:06;;;;;;;3.25;1.25;;;;;;;20.40;53.56;100424.53;5041753;28;20060;-67
2023/07/01 05:32:34;;;;;;;5.07;1.20;;;;;;;20.26;53.94;100427.19;5042110;28;20223;-67
2023/07/01 05:35:02;;;;;;;3.13;1.40;;;;;;;20.18;54.44;100421.59;5040011;28;20053;-67
2023/07/01 05:37:30;;;;;;;2.08;1.27;;;;;;;20.22;53.98;100420.69;5041960;28;20049;-67
2023/07/01 05:39:58;;;;;;;2.17;1.55;;;;;;;20.16;54.19;100413.69;5039198;28;20045;-67
2023/07/01 05:42:26;;;;;;;2.70;1.60;;;;;;;20.12;54.23;100413.47;5041688;28;20483;-66
2023/07/01 05:44:55;;;;;;;2.03;1.38;;;;;;;20.20;54.10;100408.47;5037806;28;20050;-67
2023/07/01 05:47:23;;;;;;;2.28;1.50;;;;;;;20.12;54.22;100413.47;5044112;28;20041;-66
2023/07/01 05:49:50;;;;;;;3.03;1.20;;;;;;;20.10;54.40;100414.88;5042246;28;20099;-65
2023/07/01 05:52:18;;;;;;;2.58;1.38;;;;;;;20.25;54.03;100416.56;5040594;28;20099;-66
2023/07/01 05:54:46;;;;;;;1.98;1.30;;;;;;;20.25;54.03;100406.47;5041281;28;20057;-64
2023/07/01 05:57:14;;;;;;;2.20;1.52;;;;;;;20.30;54.05;100411.84;5042078;28;20053;-65
2023/07/01 05:59:42;;;;;;;2.72;1.50;;;;;;;20.33;53.73;100402.25;5040433;28;20053;-66
2023/07/01 06:02:11;;;;;;;3.20;1.52;;;;;;;20.18;54.28;100414.22;5041396;28;20049;-66
2023/07/01 06:04:39;;;;;;;1.63;1.30;;;;;;;20.16;54.20;100405.50;5037654;28;20334;-66
2023/07/01 06:07:07;;;;;;;2.22;1.58;;;;;;;20.11;54.52;100408.31;5040050;28;20204;-65
2023/07/01 06:09:35;;;;;;;2.35;1.50;;;;;;;20.08;54.59;100408.91;5042009;28;20041;-67
2023/07/01 06:12:03;;;;;;;2.97;1.45;;;;;;;20.26;54.47;100404.53;5040632;28;20053;-66
2023/07/01 06:14:30;;;;;;;2.88;1.92;;;;;;;20.18;54.56;100413.41;5040674;28;20041;-66
2023/07/01 06:16:58;;;;;;;2.10;1.50;;;;;;;20.09;54.76;100402.34;5037148;28;20045;-67
2023/07/01 06:19:27;;;;;;;2.33;1.40;;;;;;;20.14;54.56;100405.81;5034058;28;20068;-66
2023/07/01 06:21:55;;;;;;;2.13;1.55;;;;;;;20.07;54.72;100402.63;5035659;28;20053;-66
2023/07/01 06:24:23;;;;;;;1.95;1.13;;;;;;;20.04;54.82;100397.78;5035003;28;20053;-65
2023/07/01 06:26:51;;;;;;;3.42;1.35;;;;;;;20.02;55.87;100394.53;5023776;28;20116;-64
2023/07/01 06:29:18;;;;;;;1.52;1.40;;;;;;;20.00;58.99;100393.19;5045116;28;20053;-68
2023/07/01 06:31:46;;;;;;;2.78;1.40;;;;;;;20.00;57.33;100391.28;5043329;28;20083;-70
2023/07/01 06:34:16;;;;;;;2.42;1.83;;;;;;;19.98;57.14;100396.22;5041173;28;20140;-67
2023/07/01 06:36:46;;;;;;;2.50;1.38;;;;;;;19.94;56.61;100380.75;5040698;28;20461;-65
2023/07/01 06:39:13;;;;;;;1.25;1.05;;;;;;;20.00;56.29;100385.84;5039604;28;20045;-67
2023/07/01 06:41:41;;;;;;;6.10;1.40;;;;;;;20.06;56.52;100378.38;5044037;28;20045;-65
2023/07/01 06:44:09;;;;;;;3.03;1.23;;;;;;;20.06;56.15;100392.84;5040150;28;20050;-66
2023/07/01 06:46:37;;;;;;;1.92;1.17;;;;;;;20.13;57.67;100393.28;5042646;28;20050;-69
2023/07/01 06:49:05;;;;;;;3.20;1.65;;;;;;;20.11;56.87;100395.47;5044306;28;20053;-66
2023/07/01 06:51:32;;;;;;;1.88;1.10;;;;;;;20.27;56.77;100387.06;5044960;28;20053;-66
2023/07/01 06:54:01;;;;;;;2.53;1.55;;;;;;;20.15;56.23;100385.59;5043908;28;20103;-67
2023/07/01 06:56:29;;;;;;;5.63;1.75;;;;;;;20.24;56.92;100388.47;5045093;28;20119;-67
2023/07/01 06:58:57;;;;;;;1.55;1.35;;;;;;;20.36;55.74;100388.81;5044674;28;20461;-66
2023/07/01 07:01:25;;;;;;;2.28;1.58;;;;;;;20.26;56.09;100391.72;5041065;28;20079;-66
2023/07/01 07:03:53;;;;;;;1.95;1.20;;;;;;;20.15;56.11;100384.78;5045355;28;20136;-71
2023/07/01 07:06:20;;;;;;;3.65;1.42;;;;;;;20.08;56.46;100385.16;5043359;28;20140;-67
2023/07/01 07:08:48;;;;;;;2.85;1.40;;;;;;;20.04;56.25;100380.59;5044322;28;20053;-66
2023/07/01 07:11:17;;;;;;;4.25;1.17;;;;;;;19.97;56.73;100378.25;5038278;28;20376;-67
2023/07/01 07:13:45;;;;;;;2.05;1.20;;;;;;;19.99;56.81;100381.47;5043544;28;20045;-67
2023/07/01 07:16:13;;;;;;;1.92;1.20;;;;;;;19.98;56.78;100381.78;5046741;28;20103;-67
2023/07/01 07:18:41;;;;;;;2.60;1.40;;;;;;;19.96;57.14;100382.06;5044010;28;20148;-72
2023/07/01 07:21:09;;;;;;;2.40;1.42;;;;;;;19.93;61.09;100379.13;5044333;28;20140;-68
2023/07/01 07:23:36;;;;;;;1.70;1.20;;;;;;;19.89;60.22;100367.19;5045022;28;20462;-71
2023/07/01 07:26:07;;;;;;;2.60;1.48;;;;;;;19.96;59.70;100375.81;5045329;28;20049;-71
2023/07/01 07:28:38;;;;;;;4.07;1.33;;;;;;;19.83;62.74;100385.53;5046430;28;20438;-72
2023/07/01 07:31:06;;;;;;;2.22;1.55;;;;;;;19.73;63.71;100377.50;5045159;28;20534;-71
2023/07/01 07:33:33;;;;;;;3.75;1.63;;;;;;;19.66;64.45;100375.13;5045800;28;20046;-69
2023/07/01 07:36:01;;;;;;;3.80;1.50;;;;;;;19.68;63.86;100372.94;5046142;28;20119;-70
2023/07/01 07:38:29;;;;;;;3.58;1.63;;;;;;;19.89;62.34;100369.91;5046675;28;20076;-71
2023/07/01 07:40:57;;;;;;;4.28;1.52;;;;;;;19.87;61.81;100369.41;5041722;28;20486;-67
2023/07/01 07:43:24;;;;;;;6.90;1.35;;;;;;;20.04;61.21;100369.69;4697244;28;10000532;-66
2023/07/01 07:45:54;;;;;;;2.17;1.40;;;;;;;19.95;60.67;100372.28;5043732;28;20074;-67
2023/07/01 07:48:21;;;;;;;1.92;1.40;;;;;;;20.05;60.08;100368.56;5043823;28;20050;-66
2023/07/01 07:50:49;;;;;;;1.75;1.25;;;;;;;19.99;60.33;100367.03;5035048;28;20341;-67
2023/07/01 07:53:17;;;;;;;2.03;1.20;;;;;;;19.96;59.92;100364.91;5043454;28;20064;-67
2023/07/01 07:55:45;;;;;;;5.20;1.10;;;;;;;19.94;59.86;100365.19;5042661;28;20053;-66
2023/07/01 07:58:13;;;;;;;2.33;1.30;;;;;;;19.93;59.76;100371.75;5045602;28;20050;-66
2023/07/01 08:00:41;;;;;;;1.92;1.45;;;;;;;19.92;59.77;100364.69;5044622;28;20115;-66
2023/07/01 08:03:10;;;;;;;2.28;1.40;;;;;;;19.92;59.65;100356.50;5045370;28;20053;-67
2023/07/01 08:05:38;;;;;;;1.42;1.00;;;;;;;19.92;59.90;100356.50;5044350;28;20072;-67
2023/07/01 08:08:06;;;;;;;3.60;1.10;;;;;;;19.91;59.72;100360.34;5045509;28;20045;-68
2023/07/01 08:10:33;;;;;;;2.88;1.33;;;;;;;19.92;59.52;100355.69;5040064;28;20046;-68
2023/07/01 08:13:01;;;;;;;2.33;1.30;;;;;;;19.92;59.35;100356.50;5044871;28;20076;-67
2023/07/01 08:15:29;;;;;;;1.88;1.63;;;;;;;19.92;59.34;100361.94;5045331;28;20076;-67
2023/07/01 08:17:57;;;;;;;1.17;1.08;;;;;;;19.93;59.78;100360.03;5045329;28;20156;-67
2023/07/01 08:20:26;;;;;;;1.85;1.10;;;;;;;19.92;59.50;100353.78;5042903;28;20049;-67
2023/07/01 08:22:54;;;;;;;2.00;0.93;;;;;;;19.94;59.12;100356.19;5042242;28;20180;-67
2023/07/01 08:25:23;;;;;;;1.90;1.15;;;;;;;19.93;59.09;100360.84;5035506;28;20080;-68
2023/07/01 08:27:51;;;;;;;2.95;1.10;;;;;;;19.94;59.19;100350.75;5043608;28;20095;-67
2023/07/01 08:30:18;;;;;;;1.00;0.80;;;;;;;19.94;59.08;100354.28;5043040;28;20060;-67
2023/07/01 08:32:46;;;;;;;1.02;0.98;;;;;;;19.94;58.97;100351.56;5032873;28;20085;-66
2023/07/01 08:35:15;;;;;;;1.30;0.90;;;;;;;19.95;58.88;100352.38;5044529;28;20083;-67
2023/07/01 08:37:44;;;;;;;1.30;1.10;;;;;;;19.95;58.94;100347.72;5043443;28;20045;-67
2023/07/01 08:40:12;;;;;;;2.50;1.15;;;;;;;19.96;59.17;100349.34;5043300;28;20740;-67
2023/07/01 08:42:44;;;;;;;2.35;0.80;;;;;;;19.96;59.09;100351.25;5044122;28;20079;-68
2023/07/01 08:45:13;;;;;;;1.60;0.80;;;;;;;19.89;59.29;100338.00;5040701;28;20057;-67
2023/07/01 08:47:41;;;;;;;1.45;0.90;;;;;;;19.97;59.02;100348.25;5036632;28;20087;-67
2023/07/01 08:50:10;;;;;;;0.75;0.70;;;;;;;19.96;58.95;100346.63;5038053;28;20069;-68
2023/07/01 08:52:41;;;;;;;1.08;0.90;;;;;;;19.97;58.72;100350.97;5042053;28;20041;-67
2023/07/01 08:55:11;;;;;;;0.65;0.60;;;;;;;19.95;60.19;100336.00;5034642;28;20104;-66
2023/07/01 08:57:40;;;;;;;1.67;0.98;;;;;;;19.97;59.73;100340.06;5042049;28;20391;-67
2023/07/01 09:00:10;;;;;;;1.35;0.98;;;;;;;19.98;59.65;100346.31;5043889;28;20060;-71
2023/07/01 09:02:38;;;;;;;0.70;0.68;;;;;;;19.97;59.93;100339.25;5043112;28;20068;-66
2023/07/01 09:05:07;;;;;;;0.93;0.73;;;;;;;19.98;59.64;100335.41;5037131;28;20054;-67
2023/07/01 09:07:34;;;;;;;0.70;0.70;;;;;;;19.99;59.79;100350.66;5039361;28;20111;-66
2023/07/01 09:10:03;;;;;;;0.70;0.70;;;;;;;19.99;59.63;100337.84;5037666;28;20072;-66
2023/07/01 09:12:32;;;;;;;0.60;0.60;;;;;;;19.99;59.59;100342.47;5040517;28;20080;-66
2023/07/01 09:15:01;;;;;;;0.55;0.55;;;;;;;19.99;60.33;100342.47;5041111;28;20058;-65
2023/07/01 09:17:31;;;;;;;1.27;0.80;;;;;;;19.99;59.63;100337.84;5040251;28;20053;-65
2023/07/01 09:20:00;;;;;;;1.20;0.57;;;;;;;19.99;60.16;100346.03;5042355;28;20049;-66
2023/07/01 09:22:29;;;;;;;0.88;0.60;;;;;;;20.07;59.42;100347.25;5042156;28;20049;-66
2023/07/01 09:24:57;;;;;;;1.65;0.57;;;;;;;20.02;59.87;100344.63;5043066;28;20041;-66
2023/07/01 09:27:25;;;;;;;3.28;0.70;;;;;;;20.02;59.77;100341.88;5044136;28;20466;-65
2023/07/01 09:29:54;;;;;;;0.57;0.57;;;;;;;20.01;59.90;100340.28;5043454;28;20041;-65
2023/07/01 09:32:32;;;;;;;0.73;0.68;;;;;;;20.01;59.87;100335.63;5042215;28;20479;-65
2023/07/01 09:35:01;;;;;;;0.68;0.68;;;;;;;20.01;59.94;100341.09;5036985;28;20052;-65
2023/07/01 09:37:29;;;;;;;2.40;0.65;;;;;;;20.02;60.61;100336.44;5042499;28;20076;-66
2023/07/01 09:40:19;;;;;;;0.50;0.50;;;;;;;20.01;60.13;100323.91;5041799;28;20085;-65
2023/07/01 09:42:53;;;;;;;0.90;0.90;;;;;;;20.02;60.10;100328.25;5044177;28;20071;-65
2023/07/01 09:45:23;;;;;;;0.60;0.60;;;;;;;20.03;60.73;100321.69;5034184;28;20081;-64
2023/07/01 09:47:52;;;;;;;0.63;0.52;;;;;;;20.03;60.29;100327.16;5036507;28;20054;-64
2023/07/01 09:50:23;;;;;;;0.70;0.50;;;;;;;20.12;59.92;100325.34;5041376;28;20072;-66
2023/07/01 09:52:53;;;;;;;0.85;0.68;;;;;;;20.08;60.52;100325.16;5038275;28;20053;-64
2023/07/01 09:55:21;;;;;;;2.63;0.60;;;;;;;20.06;61.20;100318.38;5042073;28;20053;-63
2023/07/01 09:57:50;;;;;;;0.98;0.60;;;;;;;20.06;60.82;100326.56;5043179;28;20052;-64
2023/07/01 10:00:17;;;;;;;0.90;0.63;;;;;;;20.05;61.66;100320.28;5041938;28;20045;-63
2023/07/01 10:02:47;;;;;;;0.82;0.65;;;;;;;20.04;62.59;100318.66;5037152;28;20072;-63
2023/07/01 10:05:17;;;;;;;0.95;0.70;;;;;;;20.06;62.07;100316.44;5047923;28;20152;-64
2023/07/01 10:07:46;;;;;;;1.00;0.55;;;;;;;20.05;61.99;100319.47;5046426;28;20108;-63
2023/07/01 10:10:16;;;;;;;0.50;0.50;;;;;;;20.06;62.72;100329.28;5033535;28;20081;-64
2023/07/01 10:12:45;;;;;;;0.47;0.47;;;;;;;20.05;62.78;100323.00;5047470;28;20239;-64
2023/07/01 10:15:15;;;;;;;0.65;0.55;;;;;;;20.05;62.74;100314.00;5047966;28;20063;-64
2023/07/01 10:17:48;;;;;;;1.63;0.60;;;;;;;20.05;62.96;100317.56;5039352;28;20050;-63
2023/07/01 10:20:30;;;;;;;0.50;0.50;;;;;;;20.05;62.44;100320.28;5043696;28;20140;-63
2023/07/01 10:22:58;;;;;;;0.73;0.70;;;;;;;20.06;62.03;100315.63;5044508;28;20076;-64
2023/07/01 10:25:31;;;;;;;2.13;0.40;;;;;;;20.07;62.06;100312.59;5046500;28;20045;-65
2023/07/01 10:28:08;;;;;;;0.80;0.60;;;;;;;20.08;62.81;100319.69;5047630;28;20053;-66
2023/07/01 10:31:12;;;;;;;1.38;0.95;;;;;;;20.08;62.86;100311.50;5045666;28;20129;-66
2023/07/01 10:33:55;;;;;;;0.82;0.70;;;;;;;20.08;63.12;100316.16;5042888;28;20049;-67
2023/07/01 10:36:23;;;;;;;2.40;0.77;;;;;;;20.08;62.73;100310.69;5047068;28;20049;-66
2023/07/01 10:38:51;;;;;;;1.95;0.82;;;;;;;20.09;64.04;100306.84;5046531;28;20053;-66
2023/07/01 10:41:50;;;;;;;1.55;0.70;;;;;;;20.08;63.40;100314.22;5042647;28;20045;-65
2023/07/01 10:44:23;;;;;;;0.75;0.60;;;;;;;20.08;63.27;100311.50;5032188;28;20064;-69
2023/07/01 10:47:16;;;;;;;3.10;0.60;;;;;;;20.10;63.08;100305.75;5046702;28;20053;-68
2023/07/01 10:50:06;;;;;;;0.70;0.70;;;;;;;20.10;63.46;100306.56;5045547;28;20046;-69
2023/07/01 10:53:01;;;;;;;0.80;0.65;;;;;;;20.11;62.76;100308.19;5036073;28;20057;-68
2023/07/01 10:55:40;;;;;;;1.02;0.60;;;;;;;20.13;62.94;100305.16;5046057;28;20056;-67
2023/07/01 10:58:18;;;;;;;1.02;0.80;;;;;;;20.18;62.37;100307.78;5034826;28;20088;-73
2023/07/01 11:00:47;;;;;;;1.05;0.60;;;;;;;20.16;63.03;100310.00;5045267;28;20041;-68
2023/07/01 11:03:54;;;;;;;0.55;0.50;;;;;;;20.34;62.08;100295.50;5046047;28;20123;-67
2023/07/01 11:06:23;;;;;;;0.75;0.70;;;;;;;20.32;62.22;100296.91;5043071;28;20057;-68
2023/07/01 11:08:53;;;;;;;4.95;0.95;;;;;;;20.38;62.71;100302.00;4696262;28;10000139;-68
2023/07/01 11:11:22;;;;;;;1.63;1.00;;;;;;;20.34;63.10;100298.25;5043344;28;20061;-64
2023/07/01 11:13:58;;;;;;;1.00;0.90;;;;;;;20.28;63.27;100296.72;5043409;28;20049;-62
2023/07/01 11:16:28;;;;;;;1.40;0.80;;;;;;;20.46;62.33;100295.06;5044123;28;20060;-63
2023/07/01 11:18:58;;;;;;;1.17;0.90;;;;;;;20.54;62.01;100291.63;5044899;28;20057;-64
2023/07/01 11:21:29;;;;;;;1.05;0.95;;;;;;;20.41;63.34;100297.88;5041138;28;21617;-63
2023/07/01 11:24:00;;;;;;;2.13;1.10;;;;;;;20.33;64.13;100296.63;5043058;28;20050;-63
2023/07/01 11:26:30;;;;;;;1.88;1.30;;;;;;;20.38;64.76;100304.75;5036321;28;20057;-62
2023/07/01 11:28:58;;;;;;;4.45;1.40;;;;;;;20.31;65.24;100296.09;5041371;28;20049;-63
2023/07/01 11:31:30;;;;;;;1.70;1.20;;;;;;;20.28;65.26;100291.25;5042237;28;20045;-62
2023/07/01 11:33:58;;;;;;;3.42;1.75;;;;;;;20.26;65.01;100298.91;5032021;28;20169;-64
2023/07/01 11:36:38;;;;;;;2.10;1.50;;;;;;;20.26;65.24;100295.38;5044402;28;20140;-64